Terminal Aerodrome Forecast
Issued by NWS

Home | Current Version | Previous Version | Text Only | Print | Product List | Glossary On
Versions: 1 2 3 4 5 6 7 8 9 10 11 12 13 14 15 16 17 18 19 20 21 22 23
000
FTUS42 KGSP 011200 RRA
TAFGMU
TAF
KGMU 011225Z 0112/0212 05010KT P6SM -RA SCT009 OVC120
     FM011300 03006KT P6SM -SHRA BKN025
      TEMPO 0113/0117 -SHRA BKN035
     FM011800 05004KT 6SM -SHRA VCTS OVC013CB
     FM020300 00000KT P6SM OVC010=

USA.gov is the U.S. government's official web portal to all federal, state and local government web resources and services.